createdAt,value
2018-04-08T00:02:26.045Z,12.53
2018-04-08T00:04:53.551Z,14.10
2018-04-08T00:07:20.957Z,12.63
2018-04-08T00:09:48.362Z,13.10
2018-04-08T00:12:15.763Z,13.17
2018-04-08T00:14:43.154Z,13.30
2018-04-08T00:17:10.555Z,14.00
2018-04-08T00:19:37.951Z,13.60
2018-04-08T00:22:05.353Z,14.00
2018-04-08T00:24:32.750Z,13.07
2018-04-08T00:27:00.146Z,14.43
2018-04-08T00:29:27.537Z,13.47
2018-04-08T00:31:54.942Z,13.00
2018-04-08T00:34:22.338Z,14.00
2018-04-08T00:36:49.743Z,14.60
2018-04-08T00:39:17.142Z,14.40
2018-04-08T00:41:44.639Z,14.57
2018-04-08T00:44:12.031Z,14.10
2018-04-08T00:46:39.552Z,14.33
2018-04-08T00:49:06.947Z,14.03
2018-04-08T00:51:34.347Z,16.03
2018-04-08T00:54:13.607Z,13.87
2018-04-08T00:56:41.007Z,15.87
2018-04-08T00:59:08.505Z,14.30
2018-04-08T01:01:35.966Z,14.25
2018-04-08T01:04:03.420Z,14.83
2018-04-08T01:06:30.878Z,15.37
2018-04-08T01:08:58.334Z,13.70
2018-04-08T01:11:25.786Z,14.77
2018-04-08T01:13:53.183Z,15.50
2018-04-08T01:16:20.603Z,15.90
2018-04-08T01:18:48.014Z,15.30
2018-04-08T01:21:15.416Z,15.03
2018-04-08T01:23:42.817Z,15.77
2018-04-08T01:26:10.223Z,15.20
2018-04-08T01:28:37.636Z,16.43
2018-04-08T01:31:05.059Z,15.45
2018-04-08T01:33:32.582Z,14.83
2018-04-08T01:35:59.974Z,16.70
2018-04-08T01:38:27.375Z,15.67
2018-04-08T01:40:54.771Z,16.20
2018-04-08T01:43:22.190Z,15.77
2018-04-08T01:45:49.586Z,15.60
2018-04-08T01:48:17.201Z,16.90
2018-04-08T01:50:44.594Z,16.77
2018-04-08T01:53:12.059Z,15.70
2018-04-08T01:55:39.454Z,15.53
2018-04-08T01:58:06.850Z,16.07
2018-04-08T02:00:34.249Z,15.57
2018-04-08T02:03:01.721Z,16.17
2018-04-08T02:05:29.133Z,16.17
2018-04-08T02:07:56.559Z,15.30
2018-04-08T02:10:24.046Z,14.77
2018-04-08T02:12:51.450Z,16.10
2018-04-08T02:15:18.843Z,16.47
2018-04-08T02:17:46.315Z,15.97
2018-04-08T02:20:13.714Z,15.23
2018-04-08T02:22:42.067Z,15.90
2018-04-08T02:25:09.450Z,14.87
2018-04-08T02:27:36.962Z,15.50
2018-04-08T02:30:04.452Z,16.00
2018-04-08T02:32:31.887Z,15.47
2018-04-08T02:34:59.283Z,14.97
2018-04-08T02:37:26.686Z,14.53
2018-04-08T02:39:55.107Z,15.00
2018-04-08T02:42:22.527Z,16.33
2018-04-08T02:44:49.924Z,17.93
2018-04-08T02:47:17.327Z,15.87
2018-04-08T02:49:44.724Z,16.37
2018-04-08T02:52:12.132Z,14.87
2018-04-08T02:54:39.538Z,15.80
2018-04-08T02:57:06.935Z,16.77
2018-04-08T02:59:34.336Z,16.60
2018-04-08T03:02:01.842Z,15.93
2018-04-08T03:04:29.242Z,16.43
2018-04-08T03:06:56.642Z,15.93
2018-04-08T03:09:24.044Z,17.40
2018-04-08T03:11:51.468Z,17.17
2018-04-08T03:14:18.919Z,15.83
2018-04-08T03:16:46.310Z,17.20
2018-04-08T03:19:13.713Z,16.20
2018-04-08T03:21:41.114Z,16.37
2018-04-08T03:24:08.549Z,15.27
2018-04-08T03:26:36.002Z,15.60
2018-04-08T03:29:03.470Z,15.40
2018-04-08T03:31:30.959Z,16.27
2018-04-08T03:33:58.358Z,16.40
2018-04-08T03:36:25.749Z,17.30
2018-04-08T03:38:53.231Z,16.00
2018-04-08T03:41:20.643Z,17.50
2018-04-08T03:43:48.098Z,15.93
2018-04-08T03:46:15.555Z,17.63
2018-04-08T03:48:42.955Z,17.77
2018-04-08T03:51:10.350Z,17.20
2018-04-08T03:53:37.798Z,15.93
2018-04-08T03:56:05.289Z,16.27
2018-04-08T03:58:32.735Z,17.57
2018-04-08T04:01:00.143Z,17.87
2018-04-08T04:03:27.566Z,18.13
2018-04-08T04:05:54.971Z,17.37
2018-04-08T04:08:22.373Z,17.37
2018-04-08T04:10:49.767Z,15.70
2018-04-08T04:13:17.168Z,16.70
2018-04-08T04:15:44.568Z,16.27
2018-04-08T04:18:23.966Z,16.23
2018-04-08T04:21:03.176Z,16.17
2018-04-08T04:23:42.399Z,16.83
2018-04-08T04:26:21.434Z,17.90
2018-04-08T04:28:48.835Z,16.53
2018-04-08T04:31:16.237Z,15.50
2018-04-08T04:33:43.631Z,15.47
2018-04-08T04:36:11.094Z,16.67
2018-04-08T04:38:38.543Z,16.20
2018-04-08T04:41:05.939Z,15.47
2018-04-08T04:43:33.405Z,14.87
2018-04-08T04:46:00.792Z,15.40
2018-04-08T04:48:28.207Z,15.63
2018-04-08T04:50:55.598Z,16.10
2018-04-08T04:53:23.005Z,17.20
2018-04-08T04:55:50.399Z,16.17
2018-04-08T04:58:17.826Z,16.67
2018-04-08T05:00:45.219Z,15.70
2018-04-08T05:03:12.625Z,17.57
2018-04-08T05:05:40.011Z,16.27
2018-04-08T05:08:07.442Z,15.80
2018-04-08T05:10:34.926Z,14.93
2018-04-08T05:13:02.302Z,15.60
2018-04-08T05:15:29.706Z,14.70
2018-04-08T05:17:57.107Z,14.70
2018-04-08T05:20:24.526Z,15.80
2018-04-08T05:22:51.982Z,14.23
2018-04-08T05:25:19.393Z,14.57
2018-04-08T05:27:46.788Z,13.93
2018-04-08T05:30:14.244Z,14.87
2018-04-08T05:32:41.622Z,14.30
2018-04-08T05:35:09.018Z,13.27
2018-04-08T05:37:36.517Z,13.97
2018-04-08T05:40:03.975Z,14.80
2018-04-08T05:42:31.379Z,13.50
2018-04-08T05:44:58.778Z,13.60
2018-04-08T05:47:26.208Z,15.07
2018-04-08T05:49:53.606Z,13.70
2018-04-08T05:52:21.003Z,13.70
2018-04-08T05:54:48.406Z,13.77
2018-04-08T05:57:15.802Z,14.67
2018-04-08T05:59:43.206Z,14.50
2018-04-08T06:02:10.598Z,13.77
2018-04-08T06:04:38.000Z,14.00
2018-04-08T06:07:05.390Z,13.90
2018-04-08T06:09:32.789Z,13.53
2018-04-08T06:12:00.222Z,14.03
2018-04-08T06:14:27.710Z,13.13
2018-04-08T06:16:55.137Z,13.00
2018-04-08T06:19:22.507Z,13.47
2018-04-08T06:21:49.976Z,13.80
2018-04-08T06:24:17.374Z,13.40
2018-04-08T06:26:44.805Z,14.30
2018-04-08T06:29:12.194Z,13.70
2018-04-08T06:31:39.599Z,14.27
2018-04-08T06:34:06.999Z,13.60
2018-04-08T06:36:34.398Z,12.97
2018-04-08T06:39:01.791Z,12.73
2018-04-08T06:41:29.195Z,13.60
2018-04-08T06:43:56.599Z,12.63
2018-04-08T06:46:24.031Z,13.07
2018-04-08T06:48:51.427Z,13.03
2018-04-08T06:51:18.944Z,12.60
2018-04-08T06:53:46.398Z,13.33
2018-04-08T06:56:13.795Z,12.07
2018-04-08T06:58:41.206Z,13.20
2018-04-08T07:01:08.606Z,12.50
2018-04-08T07:03:36.007Z,12.07
2018-04-08T07:06:03.514Z,11.63
2018-04-08T07:08:30.934Z,11.97
2018-04-08T07:10:58.322Z,12.30
2018-04-08T07:13:25.727Z,13.10
2018-04-08T07:15:53.199Z,12.60
2018-04-08T07:18:20.651Z,12.63
2018-04-08T07:20:47.999Z,13.77
2018-04-08T07:23:15.476Z,12.73
2018-04-08T07:25:42.871Z,12.57
2018-04-08T07:28:10.276Z,12.67
2018-04-08T07:30:37.743Z,12.37
2018-04-08T07:33:05.163Z,11.03
2018-04-08T07:35:32.559Z,11.10
2018-04-08T07:37:59.990Z,11.30
2018-04-08T07:40:27.458Z,12.03
2018-04-08T07:42:54.858Z,12.10
2018-04-08T07:45:22.278Z,12.17
2018-04-08T07:47:49.678Z,11.63
2018-04-08T07:50:17.070Z,11.77
2018-04-08T07:52:44.466Z,12.17
2018-04-08T07:55:11.863Z,10.67
2018-04-08T07:57:39.267Z,11.93
2018-04-08T08:00:06.662Z,11.27
2018-04-08T08:02:34.063Z,10.30
2018-04-08T08:05:01.482Z,11.67
2018-04-08T08:07:28.892Z,11.47
2018-04-08T08:09:56.286Z,11.57
2018-04-08T08:12:23.794Z,11.90
2018-04-08T08:14:51.247Z,11.60
2018-04-08T08:17:18.708Z,12.03
2018-04-08T08:19:46.106Z,10.70
2018-04-08T08:22:13.511Z,11.40
2018-04-08T08:24:41.061Z,11.90
2018-04-08T08:27:08.447Z,10.40
2018-04-08T08:29:35.849Z,10.70
2018-04-08T08:32:03.251Z,10.30
2018-04-08T08:34:30.646Z,9.63
2018-04-08T08:36:58.039Z,11.00
2018-04-08T08:39:25.534Z,10.47
2018-04-08T08:41:52.922Z,10.33
2018-04-08T08:44:20.327Z,10.20
2018-04-08T08:46:47.793Z,10.17
2018-04-08T08:49:15.250Z,10.17
2018-04-08T08:51:42.704Z,11.67
2018-04-08T08:54:10.107Z,9.40
2018-04-08T08:56:37.495Z,10.87
2018-04-08T08:59:04.967Z,10.57
2018-04-08T09:01:32.366Z,10.10
2018-04-08T09:03:59.770Z,10.60
2018-04-08T09:06:27.238Z,11.30
2018-04-08T09:08:54.638Z,10.50
2018-04-08T09:11:22.036Z,10.37
2018-04-08T09:13:49.511Z,10.77
2018-04-08T09:16:16.907Z,9.83
2018-04-08T09:18:54.218Z,10.57
2018-04-08T09:24:27.214Z,10.50
2018-04-08T09:26:54.607Z,10.03
2018-04-08T09:29:22.006Z,10.70
2018-04-08T09:31:49.426Z,10.37
2018-04-08T09:34:16.826Z,11.80
2018-04-08T09:36:44.240Z,11.13
2018-04-08T09:39:11.693Z,10.50
2018-04-08T09:41:39.154Z,10.83
2018-04-08T09:44:06.549Z,11.50
2018-04-08T09:46:33.965Z,11.33
2018-04-08T09:49:01.363Z,11.97
2018-04-08T09:51:28.763Z,12.00
2018-04-08T09:53:56.159Z,10.90
2018-04-08T09:56:23.594Z,11.33
2018-04-08T09:58:50.982Z,10.47
2018-04-08T10:04:19.301Z,10.20
2018-04-08T10:06:46.703Z,10.53
2018-04-08T10:09:14.118Z,11.33
2018-04-08T10:11:41.567Z,11.07
2018-04-08T10:14:08.959Z,11.50
2018-04-08T10:16:36.362Z,10.80
2018-04-08T10:19:03.763Z,10.03
2018-04-08T10:21:31.168Z,10.17
2018-04-08T10:23:58.559Z,11.43
2018-04-08T10:26:26.014Z,9.70
2018-04-08T10:28:53.406Z,11.27
2018-04-08T10:31:20.830Z,11.00
2018-04-08T10:33:48.227Z,12.00
2018-04-08T10:36:15.647Z,11.03
2018-04-08T10:38:43.111Z,10.87
2018-04-08T10:41:10.503Z,9.97
2018-04-08T10:43:37.895Z,10.70
2018-04-08T10:46:05.357Z,9.60
2018-04-08T10:48:32.738Z,10.50
2018-04-08T10:51:00.143Z,9.90
2018-04-08T10:53:27.530Z,9.53
2018-04-08T10:55:54.932Z,9.83
2018-04-08T10:58:22.422Z,11.53
2018-04-08T11:00:49.823Z,10.57
2018-04-08T11:03:17.222Z,10.93
2018-04-08T11:05:44.690Z,10.93
2018-04-08T11:08:12.155Z,9.93
2018-04-08T11:10:39.559Z,9.80
2018-04-08T11:13:06.946Z,9.90
2018-04-08T11:15:34.342Z,9.37
2018-04-08T11:18:01.739Z,9.50
2018-04-08T11:20:29.150Z,9.53
2018-04-08T11:22:56.564Z,10.63
2018-04-08T11:25:23.962Z,9.50
2018-04-08T11:27:51.441Z,9.60
2018-04-08T11:30:18.843Z,10.20
2018-04-08T11:32:46.254Z,10.33
2018-04-08T11:35:13.656Z,10.00
2018-04-08T11:37:41.059Z,11.53
2018-04-08T11:40:08.490Z,10.47
2018-04-08T11:42:35.890Z,10.17
2018-04-08T11:45:03.289Z,9.37
2018-04-08T11:47:30.711Z,10.30
2018-04-08T11:49:58.115Z,10.30
2018-04-08T11:52:25.557Z,10.97
2018-04-08T11:54:52.902Z,9.90
2018-04-08T11:57:20.314Z,9.23
2018-04-08T11:59:47.734Z,10.20
2018-04-08T12:02:15.135Z,9.70
2018-04-08T12:04:42.550Z,10.43
2018-04-08T12:07:10.012Z,10.90
2018-04-08T12:09:37.462Z,10.53
2018-04-08T12:12:04.922Z,8.60
2018-04-08T12:14:32.318Z,9.30
2018-04-08T12:16:59.734Z,9.50
2018-04-08T12:19:27.126Z,7.83
2018-04-08T12:21:54.522Z,9.17
2018-04-08T12:24:21.932Z,8.83
2018-04-08T12:26:49.321Z,9.77
2018-04-08T12:29:16.711Z,9.43
2018-04-08T12:31:44.114Z,9.60
2018-04-08T12:34:11.510Z,9.30
2018-04-08T12:36:38.902Z,9.77
2018-04-08T12:39:06.336Z,9.30
2018-04-08T12:41:33.730Z,7.40
2018-04-08T12:44:01.135Z,10.67
2018-04-08T12:46:28.536Z,8.47
2018-04-08T12:48:55.930Z,8.73
2018-04-08T12:51:23.428Z,9.17
2018-04-08T12:53:50.816Z,9.27
2018-04-08T12:56:18.243Z,9.40
2018-04-08T12:58:45.694Z,9.53
2018-04-08T13:01:13.150Z,8.47
2018-04-08T13:03:40.610Z,8.73
2018-04-08T13:06:08.002Z,8.93
2018-04-08T13:08:36.287Z,9.40
2018-04-08T13:11:03.683Z,8.93
2018-04-08T13:13:31.070Z,9.70
2018-04-08T13:15:58.468Z,10.17
2018-04-08T13:18:26.846Z,10.50
2018-04-08T13:20:54.236Z,9.90
2018-04-08T13:23:21.619Z,9.00
2018-04-08T13:25:49.061Z,9.43
2018-04-08T13:28:16.447Z,9.10
2018-04-08T13:30:43.875Z,8.67
2018-04-08T13:33:11.262Z,9.53
2018-04-08T13:35:38.655Z,9.20
2018-04-08T13:38:06.147Z,11.83
2018-04-08T13:40:33.594Z,8.80
2018-04-08T13:43:00.986Z,9.33
2018-04-08T13:45:28.406Z,10.17
2018-04-08T13:47:55.823Z,11.90
2018-04-08T13:50:23.206Z,10.00
2018-04-08T13:52:50.642Z,9.77
2018-04-08T13:55:18.026Z,9.93
2018-04-08T13:57:45.414Z,9.57
2018-04-08T14:00:12.849Z,8.70
2018-04-08T14:02:40.239Z,7.20
2018-04-08T14:05:07.870Z,9.40
2018-04-08T14:07:36.196Z,8.47
2018-04-08T14:10:03.585Z,9.50
2018-04-08T14:12:30.975Z,9.50
2018-04-08T14:14:58.420Z,10.13
2018-04-08T14:17:25.814Z,9.57
2018-04-08T14:19:53.195Z,9.43
2018-04-08T14:22:20.682Z,10.67
2018-04-08T14:24:48.143Z,9.73
2018-04-08T14:27:15.539Z,8.63
2018-04-08T14:29:42.926Z,9.17
2018-04-08T14:32:10.323Z,8.67
2018-04-08T14:34:37.734Z,9.67
2018-04-08T14:37:05.123Z,9.00
2018-04-08T14:39:32.542Z,9.67
2018-04-08T14:42:00.061Z,8.70
2018-04-08T14:44:27.442Z,10.00
2018-04-08T14:46:54.920Z,10.93
2018-04-08T14:49:22.374Z,9.70
2018-04-08T14:51:49.762Z,9.27
2018-04-08T14:54:17.190Z,8.60
2018-04-08T14:56:44.573Z,9.50
2018-04-08T14:59:11.999Z,9.17
2018-04-08T15:01:46.661Z,12.10
2018-04-08T15:04:06.808Z,9.87
2018-04-08T15:06:34.198Z,10.53
2018-04-08T15:09:01.595Z,10.00
2018-04-08T15:11:28.986Z,11.37
2018-04-08T15:13:56.386Z,11.43
2018-04-08T15:16:23.778Z,9.60
2018-04-08T15:18:51.166Z,9.20
2018-04-08T15:21:18.559Z,9.83
2018-04-08T15:23:45.959Z,10.40
2018-04-08T15:26:13.371Z,9.40
2018-04-08T15:28:41.802Z,10.00
2018-04-08T15:31:09.198Z,12.07
2018-04-08T15:33:36.594Z,11.30
2018-04-08T15:36:03.982Z,10.70
2018-04-08T15:38:31.385Z,10.73
2018-04-08T15:40:58.778Z,11.37
2018-04-08T15:43:26.175Z,10.87
2018-04-08T15:45:53.566Z,9.70
2018-04-08T15:48:20.962Z,10.70
2018-04-08T15:50:48.402Z,10.40
2018-04-08T15:53:15.795Z,10.10
2018-04-08T15:55:43.267Z,10.10
2018-04-08T15:58:10.711Z,9.23
2018-04-08T16:00:38.134Z,9.10
2018-04-08T16:03:05.598Z,9.50
2018-04-08T16:05:32.993Z,8.83
2018-04-08T16:08:00.385Z,8.57
2018-04-08T16:10:27.775Z,9.43
2018-04-08T16:12:55.164Z,8.67
2018-04-08T16:15:22.576Z,9.80
2018-04-08T16:17:49.959Z,11.30
2018-04-08T16:20:17.355Z,10.10
2018-04-08T16:22:45.704Z,9.80
2018-04-08T16:25:13.103Z,9.57
2018-04-08T16:27:40.557Z,9.13
2018-04-08T16:30:07.931Z,8.80
2018-04-08T16:32:35.318Z,9.17
2018-04-08T16:35:02.712Z,8.83
2018-04-08T16:37:30.096Z,8.77
2018-04-08T16:39:57.483Z,8.17
2018-04-08T16:42:24.905Z,8.40
2018-04-08T16:44:52.367Z,8.50
2018-04-08T16:47:19.754Z,8.43
2018-04-08T16:49:47.146Z,8.30
2018-04-08T16:52:14.595Z,7.87
2018-04-08T16:54:42.007Z,7.40
2018-04-08T16:57:09.403Z,7.23
2018-04-08T16:59:36.790Z,6.50
2018-04-08T17:02:04.178Z,6.57
2018-04-08T17:04:31.621Z,7.20
2018-04-08T17:06:58.983Z,6.70
2018-04-08T17:09:26.420Z,9.80
2018-04-08T17:11:53.869Z,9.77
2018-04-08T17:14:21.309Z,8.83
2018-04-08T17:16:48.770Z,7.30
2018-04-08T17:19:16.158Z,6.47
2018-04-08T17:21:43.549Z,8.83
2018-04-08T17:24:10.930Z,7.70
2018-04-08T17:26:38.336Z,8.47
2018-04-08T17:29:05.727Z,9.10
2018-04-08T17:31:33.127Z,9.47
2018-04-08T17:34:00.527Z,10.13
2018-04-08T17:36:27.914Z,10.13
2018-04-08T17:38:55.397Z,9.77
2018-04-08T17:41:22.785Z,9.63
2018-04-08T17:43:50.453Z,11.00
2018-04-08T17:46:17.842Z,12.27
2018-04-08T17:48:45.322Z,12.10
2018-04-08T17:51:12.723Z,11.83
2018-04-08T17:53:40.111Z,13.70
2018-04-08T17:56:07.511Z,14.20
2018-04-08T17:58:34.912Z,13.33
2018-04-08T18:01:02.358Z,14.50
2018-04-08T18:03:29.699Z,14.33
2018-04-08T18:05:57.103Z,13.50
2018-04-08T18:08:24.493Z,14.73
2018-04-08T18:10:51.900Z,15.30
2018-04-08T18:13:19.293Z,14.93
2018-04-08T18:15:46.686Z,15.40
2018-04-08T18:18:14.097Z,15.17
2018-04-08T18:20:41.560Z,14.93
2018-04-08T18:23:08.970Z,15.60
2018-04-08T18:25:36.359Z,14.83
2018-04-08T18:28:03.757Z,16.37
2018-04-08T18:30:31.179Z,15.60
2018-04-08T18:32:58.585Z,15.17
2018-04-08T18:35:26.111Z,16.40
2018-04-08T18:37:53.517Z,15.63
2018-04-08T18:40:20.903Z,15.20
2018-04-08T18:42:48.306Z,16.37
2018-04-08T18:45:15.739Z,16.67
2018-04-08T18:47:43.095Z,16.23
2018-04-08T18:50:10.482Z,16.50
2018-04-08T18:52:37.874Z,15.23
2018-04-08T18:55:05.285Z,15.03
2018-04-08T18:57:32.795Z,16.83
2018-04-08T19:00:00.198Z,16.93
2018-04-08T19:02:27.595Z,19.00
2018-04-08T19:04:55.038Z,15.90
2018-04-08T19:07:22.523Z,15.80
2018-04-08T19:09:49.914Z,16.57
2018-04-08T19:12:17.314Z,17.40
2018-04-08T19:14:50.282Z,17.17
2018-04-08T19:17:23.175Z,17.30
2018-04-08T19:19:50.575Z,16.57
2018-04-08T19:22:17.988Z,16.40
2018-04-08T19:24:45.434Z,17.57
2018-04-08T19:27:18.404Z,15.90
2018-04-08T19:29:45.847Z,16.87
2018-04-08T19:32:13.338Z,17.70
2018-04-08T19:34:40.732Z,18.67
2018-04-08T19:37:08.139Z,17.30
2018-04-08T19:39:35.546Z,17.53
2018-04-08T19:42:02.943Z,17.27
2018-04-08T19:44:30.343Z,18.33
2018-04-08T19:46:57.780Z,18.03
2018-04-08T19:49:25.222Z,17.30
2018-04-08T19:51:52.722Z,16.07
2018-04-08T19:54:20.110Z,17.23
2018-04-08T19:56:47.515Z,18.73
2018-04-08T19:59:14.910Z,18.13
2018-04-08T20:01:42.419Z,17.77
2018-04-08T20:04:09.815Z,15.87
2018-04-08T20:06:37.210Z,19.10
2018-04-08T20:09:04.683Z,18.13
2018-04-08T20:11:32.153Z,16.30
2018-04-08T20:13:59.543Z,17.77
2018-04-08T20:16:26.943Z,18.40
2018-04-08T20:18:54.419Z,17.53
2018-04-08T20:21:21.831Z,18.37
2018-04-08T20:23:49.254Z,17.70
2018-04-08T20:26:16.643Z,17.50
2018-04-08T20:28:44.046Z,16.30
2018-04-08T20:31:11.505Z,17.23
2018-04-08T20:33:38.942Z,18.30
2018-04-08T20:36:06.344Z,17.50
2018-04-08T20:38:33.744Z,16.57
2018-04-08T20:41:01.168Z,17.77
2018-04-08T20:43:28.569Z,18.90
2018-04-08T20:45:55.974Z,16.93
2018-04-08T20:48:23.479Z,18.13
2018-04-08T20:50:50.875Z,18.00
2018-04-08T20:53:18.325Z,19.10
2018-04-08T20:55:45.739Z,17.70
2018-04-08T20:58:13.138Z,17.63
2018-04-08T21:00:40.566Z,18.33
2018-04-08T21:03:08.018Z,18.63
2018-04-08T21:05:35.488Z,17.10
2018-04-08T21:08:02.903Z,17.30
2018-04-08T21:10:30.303Z,17.50
2018-04-08T21:12:57.750Z,18.13
2018-04-08T21:15:25.217Z,18.73
2018-04-08T21:17:52.607Z,17.13
2018-04-08T21:20:20.007Z,18.93
2018-04-08T21:22:47.471Z,19.20
2018-04-08T21:25:14.872Z,18.87
2018-04-08T21:27:42.290Z,20.27
2018-04-08T21:30:09.689Z,18.63
2018-04-08T21:32:37.092Z,17.77
2018-04-08T21:35:04.496Z,20.90
2018-04-08T21:37:31.906Z,20.43
2018-04-08T21:39:59.309Z,18.93
2018-04-08T21:42:26.700Z,18.73
2018-04-08T21:44:54.096Z,18.77
2018-04-08T21:47:21.543Z,19.93
2018-04-08T21:49:48.931Z,21.17
2018-04-08T21:52:16.344Z,21.90
2018-04-08T21:54:43.763Z,21.10
2018-04-08T21:57:11.142Z,20.00
2018-04-08T21:59:38.611Z,24.00
2018-04-08T22:02:06.062Z,23.70
2018-04-08T22:04:33.479Z,22.53
2018-04-08T22:07:00.874Z,22.27
2018-04-08T22:09:28.355Z,23.40
2018-04-08T22:11:55.747Z,23.90
2018-04-08T22:14:23.250Z,22.93
2018-04-08T22:16:50.661Z,23.03
2018-04-08T22:19:18.061Z,22.17
2018-04-08T22:21:45.514Z,22.80
2018-04-08T22:24:12.914Z,23.80
2018-04-08T22:26:40.302Z,22.40
2018-04-08T22:29:07.707Z,23.80
2018-04-08T22:31:35.143Z,22.40
2018-04-08T22:34:02.594Z,23.60
2018-04-08T22:36:30.075Z,24.13
2018-04-08T22:38:57.473Z,24.10
2018-04-08T22:41:24.869Z,22.50
2018-04-08T22:43:52.267Z,25.00
2018-04-08T22:46:19.658Z,24.30
2018-04-08T22:48:47.062Z,25.87
2018-04-08T22:51:14.454Z,24.87
2018-04-08T22:53:41.855Z,24.47
2018-04-08T22:56:09.256Z,24.37
2018-04-08T22:58:36.647Z,24.03
2018-04-08T23:01:04.043Z,23.70
2018-04-08T23:03:31.538Z,24.80
2018-04-08T23:05:58.931Z,24.47
2018-04-08T23:08:26.351Z,26.97
2018-04-08T23:10:53.785Z,23.90
2018-04-08T23:13:21.279Z,24.93
2018-04-08T23:15:48.754Z,25.77
2018-04-08T23:18:16.126Z,25.03
2018-04-08T23:20:43.527Z,22.87
2018-04-08T23:23:10.923Z,25.20
2018-04-08T23:25:38.320Z,26.13
2018-04-08T23:28:05.711Z,24.03
2018-04-08T23:30:33.107Z,25.63
2018-04-08T23:33:00.549Z,25.13
2018-04-08T23:35:27.978Z,25.80
2018-04-08T23:37:55.368Z,26.87
2018-04-08T23:40:22.770Z,25.43
2018-04-08T23:42:50.248Z,25.90
2018-04-08T23:45:17.652Z,25.30
2018-04-08T23:47:45.058Z,26.33
2018-04-08T23:50:12.459Z,25.30
2018-04-08T23:52:39.846Z,23.77
2018-04-08T23:55:07.322Z,25.00
2018-04-08T23:57:34.783Z,24.57
